EDW86Y LFMN-LSZH
Flight info
| Callsign | EDW86Y |
|---|---|
| Flight time | 0h 53m |
| Altitude | 30000 |
| Route | IRMAR DCT KINES DCT VANAS DCT MOBLO DCT UBIMA DCT SOSAL DCT KORED N871 BERSU |
| Aircraft | A20N/M-SDE2E3FGHIRWXY/LB1 |
Departure
| Time | 2026-05-04 20:40 |
|---|---|
| Airport | Nice-Côte d'Azur Airport (LFMN) |
Arrival
| Time | 2026-05-04 21:34 |
|---|---|
| Airport | Zürich Airport (LSZH) |
| Time | Latitude | Longitude | Altitude | Speed | Heading |
|---|---|---|---|---|---|
| 2026-05-04 20:27 | 43.66416 | 7.21222 | 25 ft | 0 kts | 17° |
| 2026-05-04 20:30 | 43.66405 | 7.21218 | 25 ft | 4 kts | 15° |
| 2026-05-04 20:30 | 43.66379 | 7.21209 | 25 ft | 4 kts | 8° |
| 2026-05-04 20:31 | 43.66353 | 7.21207 | 26 ft | 4 kts | 351° |
| 2026-05-04 20:31 | 43.66332 | 7.21218 | 30 ft | 4 kts | 292° |
| 2026-05-04 20:31 | 43.66329 | 7.21227 | 27 ft | 1 kts | 260° |
| 2026-05-04 20:32 | 43.66329 | 7.21226 | 27 ft | 0 kts | 260° |
| 2026-05-04 20:33 | 43.66328 | 7.21217 | 27 ft | 4 kts | 260° |
| 2026-05-04 20:33 | 43.66321 | 7.21162 | 26 ft | 8 kts | 261° |
| 2026-05-04 20:34 | 43.66310 | 7.21070 | 27 ft | 12 kts | 261° |
| 2026-05-04 20:34 | 43.66280 | 7.21004 | 26 ft | 6 kts | 199° |
| 2026-05-04 20:34 | 43.66239 | 7.21008 | 27 ft | 7 kts | 170° |
| 2026-05-04 20:34 | 43.66175 | 7.21022 | 26 ft | 11 kts | 172° |
| 2026-05-04 20:35 | 43.66092 | 7.21041 | 25 ft | 13 kts | 172° |
| 2026-05-04 20:35 | 43.65993 | 7.21065 | 26 ft | 15 kts | 167° |
| 2026-05-04 20:35 | 43.65905 | 7.21077 | 26 ft | 13 kts | 213° |
| 2026-05-04 20:35 | 43.65844 | 7.20996 | 27 ft | 12 kts | 225° |
| 2026-05-04 20:36 | 43.65787 | 7.20917 | 25 ft | 11 kts | 225° |
| 2026-05-04 20:36 | 43.65732 | 7.20841 | 25 ft | 11 kts | 225° |
| 2026-05-04 20:36 | 43.65674 | 7.20761 | 26 ft | 14 kts | 224° |
| 2026-05-04 20:36 | 43.65595 | 7.20654 | 28 ft | 18 kts | 224° |
| 2026-05-04 20:37 | 43.65496 | 7.20518 | 28 ft | 21 kts | 225° |
| 2026-05-04 20:37 | 43.65385 | 7.20364 | 26 ft | 23 kts | 225° |
| 2026-05-04 20:37 | 43.65281 | 7.20298 | 26 ft | 13 kts | 160° |
| 2026-05-04 20:37 | 43.65261 | 7.20319 | 25 ft | 0 kts | 136° |
| 2026-05-04 20:38 | 43.65260 | 7.20321 | 25 ft | 3 kts | 136° |
| 2026-05-04 20:38 | 43.65204 | 7.20396 | 27 ft | 19 kts | 136° |
| 2026-05-04 20:38 | 43.65096 | 7.20509 | 26 ft | 14 kts | 163° |
| 2026-05-04 20:38 | 43.64993 | 7.20465 | 26 ft | 18 kts | 223° |
| 2026-05-04 20:39 | 43.64892 | 7.20326 | 28 ft | 23 kts | 226° |
| 2026-05-04 20:39 | 43.64773 | 7.20181 | 26 ft | 17 kts | 192° |
| 2026-05-04 20:39 | 43.64710 | 7.20240 | 26 ft | 11 kts | 111° |
| 2026-05-04 20:39 | 43.64728 | 7.20325 | 26 ft | 9 kts | 46° |
| 2026-05-04 20:40 | 43.64841 | 7.20479 | 27 ft | 52 kts | 45° |
| 2026-05-04 20:40 | 43.65248 | 7.21041 | 26 ft | 112 kts | 45° |
| 2026-05-04 20:40 | 43.65912 | 7.21960 | 152 ft | 146 kts | 44° |
| 2026-05-04 20:40 | 43.66517 | 7.23028 | 734 ft | 139 kts | 69° |
| 2026-05-04 20:41 | 43.66484 | 7.24366 | 1140 ft | 148 kts | 109° |
| 2026-05-04 20:41 | 43.65907 | 7.25654 | 1392 ft | 170 kts | 127° |
| 2026-05-04 20:41 | 43.65075 | 7.26933 | 1861 ft | 179 kts | 131° |
| 2026-05-04 20:41 | 43.64260 | 7.28080 | 2817 ft | 155 kts | 131° |
| 2026-05-04 20:42 | 43.63522 | 7.29107 | 2868 ft | 154 kts | 131° |
| 2026-05-04 20:42 | 43.62708 | 7.30256 | 3230 ft | 183 kts | 133° |
| 2026-05-04 20:42 | 43.61686 | 7.31505 | 3573 ft | 209 kts | 146° |
| 2026-05-04 20:42 | 43.60224 | 7.31913 | 4097 ft | 229 kts | 188° |
| 2026-05-04 20:43 | 43.58733 | 7.31014 | 4935 ft | 238 kts | 208° |
| 2026-05-04 20:43 | 43.57347 | 7.29775 | 6016 ft | 240 kts | 211° |
| 2026-05-04 20:43 | 43.55956 | 7.28350 | 6774 ft | 258 kts | 220° |
| 2026-05-04 20:43 | 43.54992 | 7.26223 | 7683 ft | 270 kts | 250° |
| 2026-05-04 20:44 | 43.54967 | 7.23597 | 8629 ft | 285 kts | 282° |
| 2026-05-04 20:44 | 43.55889 | 7.21162 | 9417 ft | 292 kts | 304° |
| 2026-05-04 20:44 | 43.57193 | 7.18972 | 10043 ft | 298 kts | 308° |
| 2026-05-04 20:44 | 43.58552 | 7.16780 | 10799 ft | 302 kts | 307° |
| 2026-05-04 20:45 | 43.59950 | 7.14530 | 11336 ft | 319 kts | 311° |
| 2026-05-04 20:45 | 43.61762 | 7.12585 | 11745 ft | 341 kts | 331° |
| 2026-05-04 20:45 | 43.63998 | 7.11355 | 12420 ft | 350 kts | 340° |
| 2026-05-04 20:45 | 43.66338 | 7.10329 | 13198 ft | 355 kts | 341° |
| 2026-05-04 20:46 | 43.68715 | 7.09314 | 14020 ft | 359 kts | 341° |
| 2026-05-04 20:46 | 43.71112 | 7.08280 | 14769 ft | 362 kts | 340° |
| 2026-05-04 20:46 | 43.73524 | 7.07228 | 15530 ft | 365 kts | 340° |
| 2026-05-04 20:46 | 43.75958 | 7.06159 | 16227 ft | 371 kts | 340° |
| 2026-05-04 20:47 | 43.78465 | 7.05050 | 16550 ft | 387 kts | 340° |
| 2026-05-04 20:47 | 43.81083 | 7.03889 | 16863 ft | 402 kts | 340° |
| 2026-05-04 20:47 | 43.83776 | 7.02694 | 17347 ft | 410 kts | 340° |
| 2026-05-04 20:47 | 43.86505 | 7.01483 | 18046 ft | 410 kts | 340° |
| 2026-05-04 20:48 | 43.89254 | 7.00260 | 18776 ft | 411 kts | 340° |
| 2026-05-04 20:48 | 43.92003 | 6.99036 | 19242 ft | 418 kts | 340° |
| 2026-05-04 20:48 | 43.94757 | 6.97808 | 19715 ft | 424 kts | 340° |
| 2026-05-04 20:48 | 43.97612 | 6.96535 | 20286 ft | 427 kts | 340° |
| 2026-05-04 20:49 | 44.00454 | 6.95265 | 20824 ft | 430 kts | 340° |
| 2026-05-04 20:49 | 44.03318 | 6.93984 | 21343 ft | 435 kts | 340° |
| 2026-05-04 20:49 | 44.06212 | 6.92688 | 21807 ft | 440 kts | 340° |
| 2026-05-04 20:49 | 44.09118 | 6.91386 | 22509 ft | 440 kts | 340° |
| 2026-05-04 20:50 | 44.12055 | 6.90078 | 22969 ft | 446 kts | 341° |
| 2026-05-04 20:50 | 44.15086 | 6.89048 | 23458 ft | 452 kts | 348° |
| 2026-05-04 20:50 | 44.18213 | 6.88438 | 23928 ft | 456 kts | 352° |
| 2026-05-04 20:50 | 44.21380 | 6.87947 | 24347 ft | 459 kts | 352° |
| 2026-05-04 20:51 | 44.24568 | 6.87474 | 24775 ft | 462 kts | 352° |
| 2026-05-04 20:51 | 44.27747 | 6.87003 | 25477 ft | 457 kts | 352° |
| 2026-05-04 20:51 | 44.30911 | 6.86531 | 26000 ft | 458 kts | 352° |
| 2026-05-04 20:51 | 44.34089 | 6.86053 | 26430 ft | 461 kts | 352° |
| 2026-05-04 20:52 | 44.37285 | 6.85570 | 26837 ft | 463 kts | 352° |
| 2026-05-04 20:52 | 44.40501 | 6.85084 | 27237 ft | 466 kts | 352° |
| 2026-05-04 20:52 | 44.43790 | 6.84586 | 27638 ft | 468 kts | 351° |
| 2026-05-04 20:52 | 44.46976 | 6.84103 | 28013 ft | 471 kts | 351° |
| 2026-05-04 20:53 | 44.50262 | 6.83602 | 28315 ft | 476 kts | 351° |
| 2026-05-04 20:53 | 44.53557 | 6.83100 | 28668 ft | 479 kts | 351° |
| 2026-05-04 20:53 | 44.56880 | 6.82594 | 29065 ft | 481 kts | 351° |
| 2026-05-04 20:53 | 44.60230 | 6.82084 | 29414 ft | 484 kts | 351° |
| 2026-05-04 20:54 | 44.63571 | 6.81573 | 29754 ft | 486 kts | 351° |
| 2026-05-04 20:54 | 44.66945 | 6.81057 | 30061 ft | 490 kts | 351° |
| 2026-05-04 20:54 | 44.73834 | 6.80000 | 30115 ft | 507 kts | 351° |
| 2026-05-04 20:55 | 44.77356 | 6.79459 | 30350 ft | 502 kts | 351° |
| 2026-05-04 20:55 | 44.80748 | 6.78983 | 30753 ft | 479 kts | 352° |
| 2026-05-04 20:55 | 44.84073 | 6.78661 | 30437 ft | 471 kts | 354° |
| 2026-05-04 20:55 | 44.87332 | 6.78441 | 30173 ft | 464 kts | 355° |
| 2026-05-04 20:56 | 44.93643 | 6.78101 | 30131 ft | 451 kts | 355° |
| 2026-05-04 20:56 | 45.00016 | 6.77728 | 30125 ft | 464 kts | 354° |
| 2026-05-04 20:57 | 45.06475 | 6.77310 | 30124 ft | 464 kts | 354° |
| 2026-05-04 20:57 | 45.12915 | 6.76882 | 30124 ft | 463 kts | 354° |
| 2026-05-04 20:58 | 45.19360 | 6.76451 | 30119 ft | 463 kts | 353° |
| 2026-05-04 20:58 | 45.25803 | 6.76020 | 30110 ft | 464 kts | 354° |
| 2026-05-04 20:59 | 45.32252 | 6.75588 | 30100 ft | 464 kts | 353° |
| 2026-05-04 20:59 | 45.38691 | 6.75157 | 30100 ft | 464 kts | 354° |
| 2026-05-04 21:00 | 45.45131 | 6.74725 | 30070 ft | 462 kts | 353° |
| 2026-05-04 21:00 | 45.51560 | 6.74293 | 30090 ft | 463 kts | 353° |
| 2026-05-04 21:01 | 45.57994 | 6.73858 | 30100 ft | 463 kts | 354° |
| 2026-05-04 21:01 | 45.64420 | 6.73417 | 30065 ft | 462 kts | 353° |
| 2026-05-04 21:02 | 45.70832 | 6.72969 | 30053 ft | 460 kts | 353° |
| 2026-05-04 21:02 | 45.77242 | 6.72524 | 30057 ft | 461 kts | 354° |
| 2026-05-04 21:03 | 45.83633 | 6.71890 | 30046 ft | 460 kts | 349° |
| 2026-05-04 21:03 | 45.90022 | 6.71170 | 30065 ft | 462 kts | 349° |
| 2026-05-04 21:04 | 45.95399 | 6.70696 | 30049 ft | 463 kts | 350° |
| 2026-05-04 21:04 | 46.01843 | 6.70233 | 30054 ft | 464 kts | 351° |
| 2026-05-04 21:05 | 46.08289 | 6.70012 | 30050 ft | 463 kts | 356° |
| 2026-05-04 21:05 | 46.14712 | 6.71085 | 30048 ft | 469 kts | 12° |
| 2026-05-04 21:06 | 46.21013 | 6.73557 | 30040 ft | 470 kts | 14° |
| 2026-05-04 21:06 | 46.27289 | 6.76234 | 30043 ft | 470 kts | 14° |
| 2026-05-04 21:07 | 46.33555 | 6.78933 | 30043 ft | 470 kts | 14° |
| 2026-05-04 21:07 | 46.39829 | 6.81618 | 30038 ft | 470 kts | 14° |
| 2026-05-04 21:08 | 46.46101 | 6.84292 | 30047 ft | 470 kts | 14° |
| 2026-05-04 21:08 | 46.52309 | 6.87258 | 30042 ft | 470 kts | 23° |
| 2026-05-04 21:09 | 46.57753 | 6.92468 | 30053 ft | 471 kts | 44° |
| 2026-05-04 21:09 | 46.62125 | 6.99551 | 30061 ft | 471 kts | 51° |
| 2026-05-04 21:10 | 46.66230 | 7.06987 | 30064 ft | 471 kts | 52° |
| 2026-05-04 21:10 | 46.70297 | 7.14474 | 30067 ft | 471 kts | 52° |
| 2026-05-04 21:11 | 46.74377 | 7.21935 | 30066 ft | 470 kts | 52° |
| 2026-05-04 21:11 | 46.76417 | 7.25649 | 29633 ft | 465 kts | 51° |
| 2026-05-04 21:11 | 46.78433 | 7.29319 | 29082 ft | 462 kts | 51° |
| 2026-05-04 21:12 | 46.80428 | 7.32950 | 28793 ft | 454 kts | 51° |
| 2026-05-04 21:12 | 46.82386 | 7.36520 | 28421 ft | 447 kts | 51° |
| 2026-05-04 21:12 | 46.84314 | 7.40038 | 28069 ft | 441 kts | 51° |
| 2026-05-04 21:12 | 46.86228 | 7.43504 | 27359 ft | 433 kts | 44° |
| 2026-05-04 21:13 | 46.88325 | 7.46753 | 26793 ft | 431 kts | 41° |
| 2026-05-04 21:13 | 46.90384 | 7.49902 | 26404 ft | 427 kts | 50° |
| 2026-05-04 21:13 | 46.92205 | 7.53335 | 26032 ft | 428 kts | 54° |
| 2026-05-04 21:13 | 46.93939 | 7.56876 | 25649 ft | 428 kts | 54° |
| 2026-05-04 21:14 | 46.95663 | 7.60418 | 25267 ft | 426 kts | 54° |
| 2026-05-04 21:14 | 46.97407 | 7.63910 | 25087 ft | 424 kts | 53° |
| 2026-05-04 21:14 | 46.99291 | 7.67212 | 25063 ft | 422 kts | 43° |
| 2026-05-04 21:14 | 47.01509 | 7.70017 | 25064 ft | 421 kts | 37° |
| 2026-05-04 21:15 | 47.03834 | 7.72626 | 25064 ft | 421 kts | 35° |
| 2026-05-04 21:15 | 47.06186 | 7.75188 | 25060 ft | 421 kts | 35° |
| 2026-05-04 21:15 | 47.08542 | 7.77736 | 25047 ft | 421 kts | 34° |
| 2026-05-04 21:15 | 47.10902 | 7.80281 | 25053 ft | 421 kts | 34° |
| 2026-05-04 21:16 | 47.13259 | 7.82823 | 25036 ft | 419 kts | 34° |
| 2026-05-04 21:16 | 47.15598 | 7.85349 | 24678 ft | 416 kts | 34° |
| 2026-05-04 21:16 | 47.17922 | 7.87860 | 24281 ft | 414 kts | 34° |
| 2026-05-04 21:16 | 47.20245 | 7.90372 | 23913 ft | 415 kts | 34° |
| 2026-05-04 21:17 | 47.22571 | 7.92889 | 23527 ft | 415 kts | 34° |
| 2026-05-04 21:17 | 47.24882 | 7.95393 | 23092 ft | 410 kts | 34° |
| 2026-05-04 21:17 | 47.27170 | 7.97875 | 22676 ft | 406 kts | 35° |
| 2026-05-04 21:17 | 47.29436 | 8.00337 | 22247 ft | 403 kts | 35° |
| 2026-05-04 21:18 | 47.31682 | 8.02778 | 21826 ft | 399 kts | 35° |
| 2026-05-04 21:18 | 47.33900 | 8.05193 | 21424 ft | 395 kts | 36° |
| 2026-05-04 21:18 | 47.36093 | 8.07581 | 21089 ft | 389 kts | 36° |
| 2026-05-04 21:18 | 47.38264 | 8.09949 | 20638 ft | 387 kts | 36° |
| 2026-05-04 21:19 | 47.40418 | 8.12300 | 20212 ft | 384 kts | 36° |
| 2026-05-04 21:19 | 47.42557 | 8.14638 | 19816 ft | 380 kts | 36° |
| 2026-05-04 21:19 | 47.44674 | 8.16954 | 19396 ft | 377 kts | 36° |
| 2026-05-04 21:19 | 47.46775 | 8.19255 | 18999 ft | 375 kts | 36° |
| 2026-05-04 21:20 | 47.48851 | 8.21531 | 18642 ft | 370 kts | 36° |
| 2026-05-04 21:20 | 47.50912 | 8.23793 | 18214 ft | 368 kts | 35° |
| 2026-05-04 21:20 | 47.52988 | 8.26011 | 17567 ft | 369 kts | 36° |
| 2026-05-04 21:20 | 47.55082 | 8.28311 | 16982 ft | 370 kts | 37° |
| 2026-05-04 21:21 | 47.57133 | 8.30592 | 16488 ft | 368 kts | 37° |
| 2026-05-04 21:21 | 47.59172 | 8.32856 | 16017 ft | 366 kts | 37° |
| 2026-05-04 21:21 | 47.61288 | 8.35201 | 15495 ft | 364 kts | 37° |
| 2026-05-04 21:21 | 47.63332 | 8.37465 | 15121 ft | 360 kts | 37° |
| 2026-05-04 21:22 | 47.65208 | 8.39873 | 14734 ft | 355 kts | 48° |
| 2026-05-04 21:22 | 47.66637 | 8.42811 | 14302 ft | 350 kts | 64° |
| 2026-05-04 21:22 | 47.67475 | 8.46279 | 13810 ft | 347 kts | 81° |
| 2026-05-04 21:22 | 47.67616 | 8.49823 | 13295 ft | 342 kts | 97° |
| 2026-05-04 21:23 | 47.67168 | 8.53339 | 12748 ft | 335 kts | 107° |
| 2026-05-04 21:23 | 47.66559 | 8.56583 | 12229 ft | 327 kts | 109° |
| 2026-05-04 21:23 | 47.65928 | 8.59792 | 11607 ft | 323 kts | 109° |
| 2026-05-04 21:23 | 47.65310 | 8.62992 | 10989 ft | 320 kts | 107° |
| 2026-05-04 21:24 | 47.64711 | 8.66149 | 10388 ft | 316 kts | 107° |
| 2026-05-04 21:24 | 47.64117 | 8.69270 | 9806 ft | 312 kts | 107° |
| 2026-05-04 21:24 | 47.63529 | 8.72351 | 9177 ft | 308 kts | 107° |
| 2026-05-04 21:24 | 47.62948 | 8.75384 | 8608 ft | 303 kts | 107° |
| 2026-05-04 21:25 | 47.62374 | 8.78363 | 8128 ft | 296 kts | 107° |
| 2026-05-04 21:25 | 47.61824 | 8.81212 | 7819 ft | 284 kts | 106° |
| 2026-05-04 21:25 | 47.61293 | 8.83959 | 7545 ft | 271 kts | 105° |
| 2026-05-04 21:25 | 47.60734 | 8.86576 | 7228 ft | 261 kts | 110° |
| 2026-05-04 21:26 | 47.59972 | 8.88952 | 6915 ft | 251 kts | 119° |
| 2026-05-04 21:26 | 47.59010 | 8.91000 | 6699 ft | 233 kts | 127° |
| 2026-05-04 21:26 | 47.57908 | 8.92706 | 6450 ft | 226 kts | 139° |
| 2026-05-04 21:26 | 47.57051 | 8.93676 | 6273 ft | 223 kts | 147° |
| 2026-05-04 21:27 | 47.55708 | 8.94786 | 5985 ft | 221 kts | 156° |
| 2026-05-04 21:27 | 47.53760 | 8.95792 | 5687 ft | 231 kts | 167° |
| 2026-05-04 21:27 | 47.52684 | 8.96092 | 5601 ft | 234 kts | 173° |
| 2026-05-04 21:27 | 47.51054 | 8.96224 | 5495 ft | 235 kts | 182° |
| 2026-05-04 21:28 | 47.49435 | 8.95971 | 5394 ft | 234 kts | 191° |
| 2026-05-04 21:28 | 47.47873 | 8.95345 | 5277 ft | 228 kts | 200° |
| 2026-05-04 21:28 | 47.46449 | 8.94401 | 5187 ft | 217 kts | 207° |
| 2026-05-04 21:28 | 47.45144 | 8.93285 | 5067 ft | 216 kts | 213° |
| 2026-05-04 21:29 | 47.44050 | 8.91720 | 4938 ft | 218 kts | 234° |
| 2026-05-04 21:29 | 47.43447 | 8.89670 | 4849 ft | 220 kts | 258° |
| 2026-05-04 21:29 | 47.43388 | 8.87428 | 4781 ft | 218 kts | 272° |
| 2026-05-04 21:29 | 47.43535 | 8.85200 | 4693 ft | 218 kts | 275° |
| 2026-05-04 21:30 | 47.43712 | 8.83006 | 4585 ft | 211 kts | 277° |
| 2026-05-04 21:30 | 47.43891 | 8.80900 | 4454 ft | 201 kts | 277° |
| 2026-05-04 21:30 | 47.44060 | 8.78854 | 4336 ft | 205 kts | 276° |
| 2026-05-04 21:30 | 47.44221 | 8.76799 | 4200 ft | 193 kts | 276° |
| 2026-05-04 21:31 | 47.44503 | 8.73052 | 3801 ft | 175 kts | 276° |
| 2026-05-04 21:31 | 47.44628 | 8.71292 | 3559 ft | 170 kts | 275° |
| 2026-05-04 21:31 | 47.44744 | 8.69608 | 3347 ft | 157 kts | 275° |
| 2026-05-04 21:32 | 47.44854 | 8.68073 | 3130 ft | 144 kts | 275° |
| 2026-05-04 21:32 | 47.44969 | 8.66614 | 2826 ft | 140 kts | 275° |
| 2026-05-04 21:32 | 47.45079 | 8.65164 | 2537 ft | 139 kts | 276° |
| 2026-05-04 21:32 | 47.45170 | 8.63744 | 2298 ft | 139 kts | 275° |
| 2026-05-04 21:33 | 47.45274 | 8.62329 | 2088 ft | 138 kts | 277° |
| 2026-05-04 21:33 | 47.45386 | 8.60918 | 1953 ft | 139 kts | 277° |
| 2026-05-04 21:33 | 47.45484 | 8.59497 | 1755 ft | 138 kts | 276° |
| 2026-05-04 21:33 | 47.45583 | 8.58088 | 1582 ft | 138 kts | 277° |
| 2026-05-04 21:34 | 47.45686 | 8.56688 | 1422 ft | 134 kts | 277° |
| 2026-05-04 21:34 | 47.45770 | 8.55488 | 1398 ft | 87 kts | 277° |
| 2026-05-04 21:34 | 47.45812 | 8.54901 | 1397 ft | 33 kts | 277° |
| 2026-05-04 21:34 | 47.45834 | 8.54616 | 1411 ft | 25 kts | 276° |
| 2026-05-04 21:35 | 47.45857 | 8.54363 | 1409 ft | 23 kts | 285° |
| 2026-05-04 21:35 | 47.45901 | 8.54271 | 1413 ft | 9 kts | 327° |
| 2026-05-04 21:35 | 47.45956 | 8.54284 | 1411 ft | 8 kts | 50° |
| 2026-05-04 21:35 | 47.45959 | 8.54323 | 1407 ft | 6 kts | 95° |
| 2026-05-04 21:36 | 47.45947 | 8.54492 | 1407 ft | 22 kts | 96° |
| 2026-05-04 21:36 | 47.45928 | 8.54757 | 1407 ft | 30 kts | 96° |
| 2026-05-04 21:36 | 47.45908 | 8.55037 | 1397 ft | 19 kts | 96° |
| 2026-05-04 21:36 | 47.45961 | 8.55155 | 1403 ft | 15 kts | 33° |
| 2026-05-04 21:37 | 47.45982 | 8.55262 | 1397 ft | 10 kts | 95° |
| 2026-05-04 21:37 | 47.45980 | 8.55283 | 1397 ft | 0 kts | 92° |
| 2026-05-04 21:37 | 47.45988 | 8.55288 | 1399 ft | 3 kts | 8° |
| 2026-05-04 21:37 | 47.46044 | 8.55296 | 1401 ft | 5 kts | 6° |
| 2026-05-04 21:38 | 47.46052 | 8.55297 | 1401 ft | 0 kts | 4° |
| 2026-05-04 21:38 | 47.46065 | 8.55299 | 1401 ft | 0 kts | 5° |